Погода Золотькина 2 недели

Ростовская область, Россия

17 - 30 июля
  • 17июля
    Сегодня
    +24°
    +40°
    Небольшая облачность
    ВремяПогодаТемператураВлажностьДавлениеВетер, м/сВероятность осадков
    00:00Ясно и безоблачно+28°C36 %754 мм2.4 м/с2 %
    03:00Ясно и безоблачно+25°C40 %754 мм2.0 м/с2 %
    06:00Ясно и безоблачно+25°C38 %755 мм2.6 м/с2 %
    09:00Ясно и безоблачно+34°C27 %756 мм2.5 м/с2 %
    12:00Ясно и безоблачно+39°C21 %756 мм2.2 м/с2 %
    15:00Небольшая облачность+39°C18 %755 мм3.9 м/с2 %
    18:00Облачно с прояснениями+37°C19 %754 мм3.0 м/с2 %
    21:00Практически безоблачно+33°C27 %755 мм2.8 м/с2 %
  • 18июля
    Четверг
    +26°
    +40°
    Практически безоблачно
    ВремяПогодаТемператураВлажностьДавлениеВетер, м/сВероятность осадков
    00:00Ясно и безоблачно+29°C36 %755 мм2.1 м/с2 %
    03:00Ясно и безоблачно+26°C46 %755 мм1.6 м/с2 %
    06:00Ясно и безоблачно+26°C49 %755 мм2.2 м/с2 %
    09:00Ясно и безоблачно+34°C30 %755 мм0.9 м/с2 %
    12:00Ясно и безоблачно+39°C22 %754 мм0.8 м/с2 %
    15:00Практически безоблачно+39°C20 %753 мм1.7 м/с2 %
    18:00Небольшая облачность+38°C21 %753 мм1.4 м/с2 %
    21:00Практически безоблачно+33°C28 %753 мм2.4 м/с2 %
  • 19июля
    Пятница
    +24°
    +41°
    Облачно с прояснениями
    ВремяПогодаТемператураВлажностьДавлениеВетер, м/сВероятность осадков
    00:00Ясно и безоблачно+30°C33 %753 мм2.7 м/с2 %
    03:00Ясно и безоблачно+28°C41 %752 мм3.4 м/с2 %
    06:00Ясно и безоблачно+28°C44 %752 мм3.3 м/с2 %
    09:00Ясно и безоблачно+35°C32 %752 мм3.1 м/с2 %
    12:00Ясно и безоблачно+40°C22 %751 мм2.2 м/с2 %
    15:00Облачно с прояснениями+37°C28 %751 мм6.8 м/с14 %
    18:00Облачно с прояснениями+35°C28 %750 мм5.0 м/с11 %
    21:00Небольшая облачность+31°C37 %750 мм1.6 м/с2 %
  • 20июля
    Суббота
    +23°
    +37°
    Практически безоблачно
    ВремяПогодаТемператураВлажностьДавлениеВетер, м/сВероятность осадков
    00:00Практически безоблачно+29°C45 %750 мм4.9 м/с2 %
    03:00Небольшая облачность+27°C55 %750 мм3.3 м/с2 %
    06:00Ясно и безоблачно+24°C61 %751 мм4.0 м/с2 %
    09:00Облачно с прояснениями+31°C49 %751 мм3.9 м/с2 %
    12:00Небольшая облачность+34°C37 %750 мм2.5 м/с3 %
    15:00Практически безоблачно+36°C29 %750 мм2.6 м/с12 %
    18:00Практически безоблачно+35°C26 %750 мм2.5 м/с18 %
    21:00Практически безоблачно+30°C34 %750 мм1.4 м/с3 %
  • 21июля
    Воскресенье
    +22°
    +37°
    Облачно с прояснениями
    ВремяПогодаТемператураВлажностьДавлениеВетер, м/сВероятность осадков
    00:00Ясно и безоблачно+27°C42 %750 мм1.8 м/с2 %
    03:00Ясно и безоблачно+25°C43 %751 мм2.3 м/с2 %
    06:00Ясно и безоблачно+24°C44 %751 мм2.5 м/с2 %
    09:00Практически безоблачно+31°C33 %751 мм2.3 м/с2 %
    12:00Ясно и безоблачно+36°C25 %751 мм1.8 м/с4 %
    15:00Облачно с прояснениями+37°C22 %750 мм2.8 м/с6 %
    18:00Облачно с прояснениями+35°C25 %750 мм2.5 м/с4 %
    21:00Облачно с прояснениями+30°C44 %750 мм2.8 м/с2 %
Мы используем cookies
Соглашаюсь